createdAt,value
2023-02-07T00:01:44.258Z,46.13
2023-02-07T00:06:46.021Z,48.30
2023-02-07T00:11:47.662Z,38.57
2023-02-07T00:16:49.350Z,37.07
2023-02-07T00:21:50.956Z,41.43
2023-02-07T00:26:52.580Z,38.60
2023-02-07T00:31:54.201Z,39.57
2023-02-07T00:36:55.927Z,41.60
2023-02-07T00:41:57.957Z,34.50
2023-02-07T00:46:59.934Z,32.50
2023-02-07T00:52:01.693Z,33.97
2023-02-07T00:57:03.340Z,34.13
2023-02-07T01:02:04.967Z,34.67
2023-02-07T01:07:09.363Z,31.33
2023-02-07T01:12:10.995Z,35.23
2023-02-07T01:17:12.785Z,40.70
2023-02-07T01:22:14.384Z,39.13
2023-02-07T01:27:15.980Z,32.30
2023-02-07T01:32:17.705Z,34.33
2023-02-07T01:37:19.476Z,33.80
2023-02-07T01:42:24.360Z,30.40
2023-02-07T01:47:26.622Z,39.63
2023-02-07T01:52:34.060Z,33.27
2023-02-07T01:57:36.479Z,34.07
2023-02-07T02:02:38.570Z,31.10
2023-02-07T02:07:40.420Z,39.17
2023-02-07T02:13:12.070Z,29.93
2023-02-07T02:18:31.149Z,31.80
2023-02-07T02:23:48.061Z,31.83
2023-02-07T02:29:26.406Z,30.17
2023-02-07T02:34:46.558Z,29.67
2023-02-07T02:40:04.981Z,30.00
2023-02-07T02:45:15.841Z,29.80
2023-02-07T02:50:29.542Z,28.93
2023-02-07T02:55:43.271Z,31.73
2023-02-07T03:00:55.312Z,30.30
2023-02-07T03:06:29.680Z,24.83
2023-02-07T03:11:40.757Z,31.47
2023-02-07T03:17:07.118Z,27.97
2023-02-07T03:22:13.665Z,27.77
2023-02-07T03:27:21.507Z,29.27
2023-02-07T03:32:30.583Z,30.13
2023-02-07T03:37:42.648Z,27.20
2023-02-07T03:42:53.192Z,28.57
2023-02-07T03:47:54.795Z,31.37
2023-02-07T03:52:56.432Z,31.27
2023-02-07T03:57:58.188Z,31.73
2023-02-07T04:03:00.106Z,26.90
2023-02-07T04:08:02.093Z,32.00
2023-02-07T04:13:03.917Z,31.10
2023-02-07T04:18:05.923Z,27.17
2023-02-07T04:23:07.577Z,28.30
2023-02-07T04:28:09.188Z,30.57
2023-02-07T04:33:11.000Z,27.93
2023-02-07T04:38:12.623Z,36.93
2023-02-07T04:43:14.250Z,31.83
2023-02-07T04:48:16.028Z,28.03
2023-02-07T04:53:17.740Z,33.67
2023-02-07T04:58:21.247Z,32.43
2023-02-07T05:03:22.882Z,29.63
2023-02-07T05:08:26.309Z,26.07
2023-02-07T05:13:28.066Z,30.90
2023-02-07T05:18:29.794Z,24.97
2023-02-07T05:23:31.497Z,29.37
2023-02-07T05:28:33.164Z,28.03
2023-02-07T05:33:34.753Z,32.03
2023-02-07T05:38:36.437Z,29.33
2023-02-07T05:43:38.037Z,31.97
2023-02-07T05:48:40.294Z,34.83
2023-02-07T05:53:41.996Z,34.40
2023-02-07T05:58:43.631Z,35.43
2023-02-07T06:03:45.260Z,32.30
2023-02-07T06:08:46.980Z,29.10
2023-02-07T06:13:49.550Z,34.40
2023-02-07T06:18:51.178Z,30.20
2023-02-07T06:23:52.802Z,31.80
2023-02-07T06:28:54.422Z,37.53
2023-02-07T06:33:56.031Z,28.10
2023-02-07T06:38:57.755Z,30.20
2023-02-07T06:43:59.508Z,32.77
2023-02-07T06:49:01.232Z,32.33
2023-02-07T06:54:08.144Z,32.47
2023-02-07T06:59:09.787Z,35.33
2023-02-07T07:04:11.501Z,36.70
2023-02-07T07:09:13.710Z,31.17
2023-02-07T07:14:15.309Z,32.63
2023-02-07T07:19:17.002Z,31.63
2023-02-07T07:24:18.671Z,35.97
2023-02-07T07:29:20.430Z,35.93
2023-02-07T07:34:22.056Z,30.80
2023-02-07T07:39:24.642Z,31.37
2023-02-07T07:44:26.255Z,34.97
2023-02-07T07:49:27.898Z,29.87
2023-02-07T07:54:30.298Z,42.47
2023-02-07T07:59:32.930Z,25.13
2023-02-07T08:04:34.676Z,21.50
2023-02-07T08:09:36.379Z,27.30
2023-02-07T08:14:37.989Z,35.57
2023-02-07T08:19:39.685Z,28.53
2023-02-07T08:24:41.977Z,39.63
2023-02-07T08:29:43.702Z,25.90
2023-02-07T08:34:45.495Z,29.20
2023-02-07T08:39:48.161Z,26.00
2023-02-07T08:44:50.620Z,17.98
2023-02-07T08:49:52.314Z,20.03
2023-02-07T08:54:53.952Z,19.80
2023-02-07T08:59:55.810Z,19.73
2023-02-07T09:04:57.513Z,23.85
2023-02-07T09:09:59.163Z,18.67
2023-02-07T09:15:01.055Z,22.20
2023-02-07T09:20:02.747Z,24.65
2023-02-07T09:25:04.617Z,20.35
2023-02-07T09:30:06.838Z,21.25
2023-02-07T09:35:09.237Z,22.52
2023-02-07T09:40:19.176Z,20.67
2023-02-07T09:45:24.181Z,16.95
2023-02-07T09:50:31.933Z,19.17
2023-02-07T09:55:46.203Z,19.17
2023-02-07T10:00:59.632Z,18.67
2023-02-07T10:06:18.845Z,19.20
2023-02-07T10:12:05.405Z,17.23
2023-02-07T10:17:32.190Z,18.65
2023-02-07T10:23:32.420Z,15.60
2023-02-07T10:28:50.893Z,24.83
2023-02-07T10:34:00.662Z,23.35
2023-02-07T10:39:12.872Z,17.67
2023-02-07T10:44:20.036Z,20.77
2023-02-07T10:49:28.066Z,25.73
2023-02-07T10:54:29.769Z,20.77
2023-02-07T10:59:46.004Z,23.17
2023-02-07T11:04:47.926Z,19.85
2023-02-07T11:09:49.794Z,20.83
2023-02-07T11:15:02.976Z,21.52
2023-02-07T11:20:06.714Z,21.25
2023-02-07T11:25:09.100Z,23.20
2023-02-07T11:30:20.541Z,23.77
2023-02-07T11:35:22.384Z,23.83
2023-02-07T11:40:41.997Z,22.20
2023-02-07T11:45:50.131Z,21.63
2023-02-07T11:50:58.125Z,22.30
2023-02-07T11:55:59.797Z,18.92
2023-02-07T12:01:03.376Z,26.30
2023-02-07T12:06:05.967Z,27.70
2023-02-07T12:11:31.760Z,22.85
2023-02-07T12:16:41.324Z,26.25
2023-02-07T12:22:11.535Z,21.05
2023-02-07T12:27:18.850Z,21.70
2023-02-07T12:32:52.380Z,20.83
2023-02-07T12:38:16.172Z,20.33
2023-02-07T12:43:23.262Z,26.05
2023-02-07T12:48:38.424Z,22.42
2023-02-07T12:53:59.714Z,19.27
2023-02-07T12:59:19.442Z,25.80
2023-02-07T13:04:40.893Z,25.05
2023-02-07T13:10:00.902Z,26.13
2023-02-07T13:15:20.995Z,23.00
2023-02-07T13:20:40.500Z,22.15
2023-02-07T13:25:44.898Z,23.92
2023-02-07T13:30:48.923Z,20.95
2023-02-07T13:35:51.891Z,21.20
2023-02-07T13:41:11.320Z,23.33
2023-02-07T13:46:42.786Z,23.92
2023-02-07T13:51:57.815Z,33.17
2023-02-07T13:57:18.978Z,23.75
2023-02-07T14:02:22.807Z,25.75
2023-02-07T14:07:29.887Z,27.67
2023-02-07T14:12:34.806Z,32.45
2023-02-07T14:17:36.354Z,24.85
2023-02-07T14:22:40.834Z,28.60
2023-02-07T14:28:03.809Z,30.88
2023-02-07T14:33:21.882Z,27.80
2023-02-07T14:38:33.847Z,26.60
2023-02-07T14:44:08.778Z,27.70
2023-02-07T14:49:16.893Z,29.63
2023-02-07T14:54:47.211Z,30.77
2023-02-07T15:00:13.428Z,29.95
2023-02-07T15:05:18.039Z,44.15
2023-02-07T15:10:26.642Z,27.00
2023-02-07T15:15:31.134Z,30.95
2023-02-07T15:20:35.575Z,31.52
2023-02-07T15:25:41.369Z,31.27
2023-02-07T15:30:57.608Z,33.22
2023-02-07T15:35:59.320Z,33.88
2023-02-07T15:41:01.507Z,35.97
2023-02-07T15:46:12.048Z,37.22
2023-02-07T15:51:15.973Z,49.63
2023-02-07T15:56:18.180Z,39.15
2023-02-07T16:01:25.970Z,36.50
2023-02-07T16:06:30.378Z,38.77
2023-02-07T16:11:39.936Z,38.00
2023-02-07T16:16:53.569Z,43.13
2023-02-07T16:22:07.371Z,56.27
2023-02-07T16:27:16.274Z,43.90
2023-02-07T16:32:17.909Z,42.20
2023-02-07T16:37:19.504Z,50.30
2023-02-07T16:42:21.238Z,47.90
2023-02-07T16:47:23.752Z,45.37
2023-02-07T16:52:25.377Z,48.03
2023-02-07T16:57:26.998Z,49.63
2023-02-07T17:02:28.637Z,46.57
2023-02-07T17:07:30.429Z,44.17
2023-02-07T17:12:32.024Z,48.47
2023-02-07T17:17:33.616Z,43.67
2023-02-07T17:22:35.426Z,43.92
2023-02-07T17:27:37.024Z,42.87
2023-02-07T17:32:38.670Z,46.53
2023-02-07T17:37:40.762Z,45.17
2023-02-07T17:42:42.348Z,38.90
2023-02-07T17:47:44.544Z,47.73
2023-02-07T17:52:46.622Z,43.27
2023-02-07T17:57:48.270Z,45.13
2023-02-07T18:02:50.069Z,43.83
2023-02-07T18:07:51.843Z,45.38
2023-02-07T18:12:53.790Z,43.22
2023-02-07T18:17:55.908Z,43.47
2023-02-07T18:22:59.008Z,42.85
2023-02-07T18:28:01.558Z,51.70
2023-02-07T18:33:03.484Z,49.25
2023-02-07T18:38:05.082Z,51.07
2023-02-07T18:43:07.524Z,48.67
2023-02-07T18:48:09.613Z,59.35
2023-02-07T18:53:12.665Z,54.63
2023-02-07T18:58:14.303Z,61.00
2023-02-07T19:03:15.935Z,57.47
2023-02-07T19:08:17.532Z,57.83
2023-02-07T19:13:19.183Z,55.47
2023-02-07T19:18:20.786Z,61.93
2023-02-07T19:23:22.385Z,55.40
2023-02-07T19:28:24.644Z,55.13
2023-02-07T19:33:26.282Z,53.10
2023-02-07T19:38:27.870Z,57.27
2023-02-07T19:43:29.998Z,59.03
2023-02-07T19:48:32.735Z,58.70
2023-02-07T19:53:35.511Z,55.27
2023-02-07T19:58:40.595Z,62.03
2023-02-07T20:03:43.927Z,66.60
2023-02-07T20:08:45.541Z,68.80
2023-02-07T20:13:50.371Z,84.10
2023-02-07T20:18:53.116Z,83.20
2023-02-07T20:23:56.307Z,107.00
2023-02-07T20:29:02.924Z,99.60
2023-02-07T20:34:05.459Z,96.73
2023-02-07T20:39:13.812Z,79.63
2023-02-07T20:44:24.528Z,82.25
2023-02-07T20:49:30.920Z,77.73
2023-02-07T20:54:32.630Z,70.00
2023-02-07T20:59:34.367Z,72.30
2023-02-07T21:04:37.501Z,66.53
2023-02-07T21:09:39.242Z,73.47
2023-02-07T21:14:41.379Z,77.40
2023-02-07T21:19:42.973Z,72.67
2023-02-07T21:24:44.569Z,72.97
2023-02-07T21:29:46.152Z,78.87
2023-02-07T21:34:48.727Z,83.43
2023-02-07T21:39:50.391Z,91.63
2023-02-07T21:44:51.976Z,86.10
2023-02-07T21:49:53.602Z,70.80
2023-02-07T21:54:55.234Z,79.10
2023-02-07T21:59:56.834Z,83.20
2023-02-07T22:04:58.425Z,83.03
2023-02-07T22:10:00.041Z,76.33
2023-02-07T22:15:01.707Z,69.33
2023-02-07T22:20:03.617Z,67.85
2023-02-07T22:25:05.559Z,73.63
2023-02-07T22:30:07.599Z,78.13
2023-02-07T22:35:09.244Z,79.87
2023-02-07T22:40:11.305Z,84.47
2023-02-07T22:45:12.903Z,93.80
2023-02-07T22:50:14.531Z,80.15
2023-02-07T22:55:16.258Z,78.00
2023-02-07T23:00:19.558Z,83.77
2023-02-07T23:05:21.214Z,87.47
2023-02-07T23:10:22.872Z,83.40
2023-02-07T23:15:24.517Z,84.13
2023-02-07T23:20:26.137Z,90.72
2023-02-07T23:25:27.760Z,73.25
2023-02-07T23:30:29.409Z,78.77
2023-02-07T23:35:31.663Z,80.47
2023-02-07T23:40:33.343Z,71.07
2023-02-07T23:45:34.955Z,79.25
2023-02-07T23:50:36.595Z,69.40
2023-02-07T23:55:42.137Z,78.75
